Friday, October 19, 2018, 11:38 AM EDT
Back to Local

KACK, Nantucket Memorial Airport

Location: Nantucket, MA, United States Lat: 41.25
Local Time: 11:38 AM EDT (15:38 GMT) Lon: -70.067
Time Zone: US/Eastern Elev: 49 ft

Show me the last for .
Show Decoded

2018-10-19 10:53 METAR KACK 191453Z 25014G21KT 10SM CLR 13/02 A3023 RMK AO2 SLP235 T01280017
                 58018 =
2018-10-19 09:53 METAR KACK 191353Z 25013KT 10SM CLR 11/02 A3025 RMK AO2 SLP244 T01110022 =
2018-10-19 08:53 METAR KACK 191253Z 30009KT 10SM CLR 09/01 A3027 RMK AO2 SLP249 T00940006 =
2018-10-19 07:53 METAR KACK 191153Z 28007KT 10SM CLR 06/M01 A3028 RMK AO2 SLP253 T00611006 10061
                 20044 53002 =
2018-10-19 06:53 METAR KACK 191053Z 28007KT 10SM CLR 04/M01 A3027 RMK AO2 SLP251 T00441006 =
2018-10-19 05:53 METAR KACK 190953Z 31008KT 10SM CLR 06/M01 A3028 RMK AO2 SLP252 T00561011 =
2018-10-19 04:53 METAR KACK 190853Z AUTO 31009KT 10SM CLR 06/M02 A3027 RMK AO2 SLP251 T00561022
                 53000 =
2018-10-19 03:53 METAR KACK 190753Z AUTO 30010KT 10SM CLR 06/M03 A3026 RMK AO2 SLP248 T00561028 =
2018-10-19 02:53 METAR KACK 190653Z AUTO 31012G20KT 10SM CLR 06/M03 A3026 RMK AO2 SLP248
                 T00561028 =
2018-10-19 01:53 METAR KACK 190553Z AUTO 28010KT 10SM CLR 05/M03 A3027 RMK AO2 SLP251 T00501033
                 10067 20050 55008 =
2018-10-19 00:53 METAR KACK 190453Z AUTO 29012KT 10SM CLR 06/M04 A3027 RMK AO2 SLP250 T00611044
                 400890050 =
2018-10-18 23:53 METAR KACK 190353Z AUTO 29010KT 10SM CLR 07/M05 A3028 RMK AO2 SLP253 T00671050 =
2018-10-18 22:53 METAR KACK 190253Z AUTO 29011G19KT 10SM CLR 07/M06 A3029 RMK AO2 SLP258
                 T00671061 50010 =
2018-10-18 21:53 METAR KACK 190153Z AUTO 29010KT 10SM CLR 06/M07 A3030 RMK AO2 SLP259 T00611067 =
2018-10-18 20:53 METAR KACK 190053Z AUTO 29011KT 10SM CLR 06/M06 A3028 RMK AO2 SLP254 T00611061 =
2018-10-18 19:53 METAR KACK 182353Z 27010KT 10SM CLR 06/M07 A3026 RMK AO2 SLP248 T00611067 10089
                 20056 51017 =
2018-10-18 18:53 METAR KACK 182253Z 29014KT 10SM CLR 06/M07 A3025 RMK AO2 SLP243 T00611072 =
2018-10-18 17:53 METAR KACK 182153Z 27008KT 10SM CLR 06/M07 A3023 RMK AO2 SLP236 T00611072 =
2018-10-18 16:53 METAR KACK 182053Z 29012KT 10SM CLR 08/M07 A3021 RMK AO2 SLP231 T00781072 53004
                 =
2018-10-18 15:53 METAR KACK 181953Z 27014KT 10SM CLR 08/M08 A3021 RMK AO2 SLP230 T00831078 =
2018-10-18 14:53 METAR KACK 181853Z 28016G21KT 10SM FEW055 08/M07 A3020 RMK AO2 SLP227 T00831072
                 =
2018-10-18 13:53 METAR KACK 181753Z 29012G19KT 10SM CLR 08/M07 A3020 RMK AO2 PK WND 33026/1734
                 SLP227 T00781067 10083 20050 50000 =
2018-10-18 12:53 METAR KACK 181653Z 31015G25KT 10SM CLR 08/M07 A3020 RMK AO2 SLP227 T00781067 =
2018-10-18 11:53 METAR KACK 181553Z 31015G23KT 10SM CLR 07/M07 A3021 RMK AO2 PK WND 32027/1527
                 SLP228 T00721067 =

Support USWX by starting your Amazon purchase here.